Time;durP1;ratioP1;P1;durP2;ratioP2;P2;SDS_P1;SDS_P2;PMS_P1;PMS_P2;Temp;Humidity;BMP_temperature;BMP_pressure;BME280_temperature;BME280_humidity;BME280_pressure;Samples;Min_cycle;Max_cycle;Signal;HPM_P1;HPM_P2
2022/08/03 00:01:00;;;;;;;3.22;0.90;;;;;;;25.92;40.04;98658.53;4979156;28;20409;-86
2022/08/03 00:03:25;;;;;;;2.35;0.90;;;;;;;25.93;39.79;98668.22;4994891;28;20482;-87
2022/08/03 00:05:51;;;;;;;2.45;1.00;;;;;;;25.92;39.77;98662.06;4962494;28;20098;-86
2022/08/03 00:08:16;;;;;;;1.52;0.93;;;;;;;25.96;39.78;98670.44;4978677;28;20065;-86
2022/08/03 00:10:42;;;;;;;2.25;1.08;;;;;;;25.97;39.90;98659.56;4980481;28;20026;-87
2022/08/03 00:13:07;;;;;;;2.35;0.85;;;;;;;25.96;39.78;98659.75;4978756;28;20091;-89
2022/08/03 00:15:33;;;;;;;2.53;1.08;;;;;;;25.99;39.94;98662.00;4978777;28;20023;-90
2022/08/03 00:17:58;;;;;;;1.75;1.00;;;;;;;26.02;39.80;98666.13;4962883;28;20038;-88
2022/08/03 00:20:24;;;;;;;1.50;1.00;;;;;;;25.97;40.30;98664.91;4979158;28;20033;-87
2022/08/03 00:22:50;;;;;;;4.45;1.10;;;;;;;26.01;40.25;98657.25;4962454;28;20073;-87
2022/08/03 00:25:15;;;;;;;1.48;1.02;;;;;;;26.06;39.78;98652.09;4962476;28;20089;-87
2022/08/03 00:27:41;;;;;;;2.60;1.27;;;;;;;26.11;39.89;98651.44;4962352;28;20034;-87
2022/08/03 00:30:07;;;;;;;2.28;1.20;;;;;;;26.00;40.89;98661.81;4962357;28;20030;-88
2022/08/03 00:32:32;;;;;;;5.05;1.10;;;;;;;25.94;40.47;98659.16;4961933;28;20125;-89
2022/08/03 00:34:58;;;;;;;1.88;1.15;;;;;;;25.90;41.14;98663.28;4962477;28;20027;-90
2022/08/03 00:37:23;;;;;;;1.85;0.95;;;;;;;25.77;40.97;98654.34;4978382;28;20536;-88
2022/08/03 00:39:49;;;;;;;3.00;1.05;;;;;;;25.81;40.97;98662.75;4996051;28;20508;-89
2022/08/03 00:42:14;;;;;;;1.65;1.10;;;;;;;25.78;41.00;98666.69;4994816;28;20045;-89
2022/08/03 00:44:41;;;;;;;4.28;1.10;;;;;;;25.71;41.23;98665.09;4978358;28;20026;-88
2022/08/03 00:47:07;;;;;;;2.08;1.02;;;;;;;25.75;41.02;98668.97;4978243;28;20041;-90
2022/08/03 00:49:32;;;;;;;2.20;1.30;;;;;;;25.70;41.60;98674.97;4978398;28;20022;-91
2022/08/03 00:51:59;;;;;;;1.70;1.00;;;;;;;25.65;41.50;98666.78;4978695;28;20085;-89
2022/08/03 00:54:24;;;;;;;3.92;1.15;;;;;;;25.66;41.71;98668.41;4978266;28;20066;-87
2022/08/03 00:56:50;;;;;;;4.20;1.20;;;;;;;25.64;41.52;98665.94;4977906;28;20066;-87
2022/08/03 00:59:15;;;;;;;2.60;1.27;;;;;;;25.63;41.53;98661.66;4962027;28;20478;-87
2022/08/03 01:01:41;;;;;;;4.43;1.20;;;;;;;25.62;41.91;98672.56;4994577;28;20107;-89
2022/08/03 01:04:06;;;;;;;2.22;1.10;;;;;;;25.60;41.92;98675.44;4993450;28;20057;-87
2022/08/03 01:06:38;;;;;;;3.78;1.20;;;;;;;25.54;42.31;98673.66;4993962;28;20441;-89
2022/08/03 01:09:45;;;;;;;1.52;1.02;;;;;;;25.43;42.49;98677.81;4978195;28;20037;-88
2022/08/03 01:12:25;;;;;;;2.70;1.10;;;;;;;25.42;42.87;98675.34;4980094;28;20088;-87
2022/08/03 01:15:20;;;;;;;3.22;1.10;;;;;;;25.34;42.82;98672.94;4995604;28;20034;-87
2022/08/03 01:17:50;;;;;;;2.13;1.25;;;;;;;25.28;42.76;98667.41;4994297;28;20026;-87
2022/08/03 01:20:16;;;;;;;2.40;1.40;;;;;;;25.30;42.75;98666.38;4994138;28;20033;-88
2022/08/03 01:23:01;;;;;;;3.92;1.30;;;;;;;25.34;42.80;98673.75;4978033;28;20117;-89
2022/08/03 01:25:53;;;;;;;5.88;1.17;;;;;;;25.30;42.45;98675.19;4995427;28;20029;-90
2022/08/03 01:28:22;;;;;;;1.67;1.20;;;;;;;25.31;42.85;98676.03;4997319;28;20030;-89
2022/08/03 01:30:47;;;;;;;2.92;1.20;;;;;;;25.32;42.74;98680.34;4980666;28;20030;-87
2022/08/03 01:33:25;;;;;;;2.67;1.58;;;;;;;25.29;42.80;98673.59;4977818;28;20602;-89
2022/08/03 01:35:57;;;;;;;2.95;1.38;;;;;;;25.28;42.90;98677.28;4961869;28;20030;-88
2022/08/03 01:38:28;;;;;;;1.60;1.30;;;;;;;25.26;42.83;98679.31;4977437;28;20047;-88
2022/08/03 01:40:54;;;;;;;3.17;1.58;;;;;;;25.16;42.93;98665.59;4961242;28;20026;-88
2022/08/03 01:43:22;;;;;;;3.95;1.48;;;;;;;25.14;43.05;98678.34;4977243;28;20054;-89
2022/08/03 01:45:47;;;;;;;;;;;;;;;25.10;43.60;98681.44;4977167;28;20042;-90
2022/08/03 01:48:14;;;;;;;2.15;1.48;;;;;;;25.03;43.85;98675.34;4993366;28;20515;-89
2022/08/03 01:50:40;;;;;;;2.73;1.40;;;;;;;25.10;43.51;98680.63;4961090;28;20049;-88
2022/08/03 01:53:06;;;;;;;2.67;1.40;;;;;;;25.01;43.51;98671.22;4961246;28;20281;-89
2022/08/03 01:55:32;;;;;;;4.43;1.50;;;;;;;25.00;43.45;98675.75;4977418;28;20057;-89
2022/08/03 01:57:58;;;;;;;2.00;1.55;;;;;;;24.95;43.50;98670.22;4961632;28;20429;-73
2022/08/03 02:00:23;;;;;;;2.70;1.30;;;;;;;24.92;43.88;98670.63;4976742;28;20089;-76
2022/08/03 02:02:49;;;;;;;3.72;1.40;;;;;;;24.83;43.99;98669.25;4962332;28;20061;-75
2022/08/03 02:05:14;;;;;;;2.70;1.40;;;;;;;24.77;44.10;98670.09;4980070;28;20034;-76
2022/08/03 02:07:40;;;;;;;1.67;1.25;;;;;;;24.78;44.59;98677.06;4979238;28;20429;-77
2022/08/03 02:10:06;;;;;;;2.10;1.38;;;;;;;24.78;44.61;98675.22;4980357;28;20037;-76
2022/08/03 02:12:33;;;;;;;1.85;1.40;;;;;;;24.82;44.26;98676.44;4979212;28;20537;-76
2022/08/03 02:14:59;;;;;;;2.83;1.60;;;;;;;24.85;44.19;98673.34;4963759;28;20041;-75
2022/08/03 02:17:25;;;;;;;2.08;1.38;;;;;;;24.93;43.96;98677.63;4979622;28;20034;-76
2022/08/03 02:19:50;;;;;;;2.28;1.40;;;;;;;24.97;43.56;98680.69;4995882;28;20516;-76
2022/08/03 02:22:16;;;;;;;2.45;1.23;;;;;;;24.97;43.44;98672.66;4979605;28;20034;-76
2022/08/03 02:24:41;;;;;;;3.08;1.35;;;;;;;25.02;43.28;98680.88;4980109;28;20033;-75
2022/08/03 02:27:12;;;;;;;3.50;1.48;;;;;;;25.02;42.95;98683.56;4963188;28;20042;-76
2022/08/03 02:29:37;;;;;;;2.17;1.58;;;;;;;24.99;43.27;98682.13;4979592;28;20412;-75
2022/08/03 02:32:03;;;;;;;2.83;1.50;;;;;;;24.99;43.39;98690.13;4979906;28;20037;-76
2022/08/03 02:34:29;;;;;;;2.38;1.52;;;;;;;24.95;43.63;98691.56;4979855;28;20034;-76
2022/08/03 02:36:54;;;;;;;3.92;1.63;;;;;;;24.92;43.32;98684.81;4979677;28;20120;-76
2022/08/03 02:39:21;;;;;;;4.95;1.55;;;;;;;24.93;43.12;98680.28;4979295;28;20034;-76
2022/08/03 02:41:50;;;;;;;2.50;1.70;;;;;;;24.84;43.48;98681.56;4979429;28;20036;-76
2022/08/03 02:44:17;;;;;;;2.65;1.45;;;;;;;24.87;43.33;98676.59;4995599;28;20029;-76
2022/08/03 02:46:44;;;;;;;3.83;1.40;;;;;;;24.82;43.76;98678.28;4980054;28;20087;-76
2022/08/03 02:49:10;;;;;;;4.87;1.43;;;;;;;24.84;43.51;98693.06;4979590;28;20051;-75
2022/08/03 02:51:36;;;;;;;1.30;1.00;;;;;;;24.78;43.63;98685.91;4963250;28;20065;-75
2022/08/03 02:54:02;;;;;;;2.88;1.50;;;;;;;24.72;43.91;98695.56;4995305;28;20069;-77
2022/08/03 02:56:28;;;;;;;2.35;1.58;;;;;;;24.69;43.93;98682.63;4995637;28;20046;-77
2022/08/03 02:58:53;;;;;;;2.45;1.40;;;;;;;24.72;43.57;98686.75;4979231;28;20025;-77
2022/08/03 03:01:20;;;;;;;1.73;1.30;;;;;;;24.74;43.53;98688.16;4978996;28;20056;-76
2022/08/03 03:03:47;;;;;;;2.75;1.33;;;;;;;24.81;43.49;98695.31;4975104;28;20057;-76
2022/08/03 03:06:13;;;;;;;2.88;1.55;;;;;;;24.82;43.52;98695.13;4959742;28;20050;-77
2022/08/03 03:08:39;;;;;;;4.22;1.55;;;;;;;24.85;43.40;98694.69;4975725;28;20065;-76
2022/08/03 03:11:04;;;;;;;2.70;1.50;;;;;;;24.88;43.25;98702.28;4991932;28;20026;-80
2022/08/03 03:13:30;;;;;;;2.65;1.60;;;;;;;24.93;43.22;98702.47;4992046;28;20039;-78
2022/08/03 03:16:01;;;;;;;2.78;1.60;;;;;;;25.01;43.40;98704.06;4975822;28;20490;-76
2022/08/03 03:18:27;;;;;;;4.82;1.70;;;;;;;25.02;43.54;98697.72;4975929;28;20038;-78
2022/08/03 03:20:53;;;;;;;3.08;1.60;;;;;;;25.21;42.92;98704.00;4992529;28;20030;-78
2022/08/03 03:23:20;;;;;;;2.65;1.60;;;;;;;25.38;42.83;98712.38;4991450;28;20493;-78
2022/08/03 03:25:45;;;;;;;2.95;1.60;;;;;;;25.41;42.77;98711.97;4959485;28;20089;-78
2022/08/03 03:28:11;;;;;;;1.92;1.60;;;;;;;25.42;42.91;98715.44;4975431;28;20042;-77
2022/08/03 03:30:36;;;;;;;3.88;1.48;;;;;;;25.44;42.72;98711.53;4959355;28;20042;-77
2022/08/03 03:33:02;;;;;;;2.22;1.40;;;;;;;25.36;42.99;98713.63;4959508;28;20031;-78
2022/08/03 03:35:27;;;;;;;2.38;1.60;;;;;;;25.38;42.54;98715.06;4996048;28;20022;-78
2022/08/03 03:37:53;;;;;;;4.75;1.67;;;;;;;25.42;42.44;98724.25;4995566;28;20034;-78
2022/08/03 03:40:19;;;;;;;3.42;1.73;;;;;;;25.41;42.78;98719.97;4979595;28;20113;-78
2022/08/03 03:42:45;;;;;;;4.57;1.70;;;;;;;25.37;43.16;98725.94;4963383;28;20097;-78
2022/08/03 03:45:11;;;;;;;3.08;1.73;;;;;;;25.39;43.18;98726.56;4979248;28;20030;-78
2022/08/03 03:47:36;;;;;;;2.20;1.60;;;;;;;25.41;43.42;98725.31;4979498;28;20038;-78
2022/08/03 03:50:03;;;;;;;5.50;2.45;;;;;;;25.40;43.12;98729.00;4963301;28;20193;-77
2022/08/03 03:52:28;;;;;;;3.53;1.90;;;;;;;25.50;43.21;98731.22;4979387;28;20033;-77
2022/08/03 03:54:54;;;;;;;5.05;2.00;;;;;;;25.61;42.99;98738.53;4995116;28;20034;-77
2022/08/03 03:57:19;;;;;;;5.03;2.25;;;;;;;25.73;42.47;98729.84;4978977;28;20034;-77
2022/08/03 03:59:45;;;;;;;3.08;1.80;;;;;;;25.90;42.58;98732.81;4997130;28;20022;-77
2022/08/03 04:02:10;;;;;;;5.90;2.00;;;;;;;26.02;42.84;98735.66;4996583;28;20069;-76
2022/08/03 04:13:00;;;;;;;3.65;2.78;;;;;;;26.60;42.09;98726.47;4981863;28;20501;-77
2022/08/03 04:15:26;;;;;;;4.60;1.70;;;;;;;27.51;39.61;98738.25;4978860;28;20030;-77
2022/08/03 04:17:51;;;;;;;5.05;2.13;;;;;;;27.79;39.33;98743.00;4979040;28;20049;-76
2022/08/03 04:20:17;;;;;;;3.42;1.73;;;;;;;29.05;37.04;98735.75;4978837;28;20474;-77
2022/08/03 04:22:43;;;;;;;5.75;1.80;;;;;;;30.19;35.00;98728.69;4979244;28;20045;-78
2022/08/03 04:25:09;;;;;;;8.77;1.70;;;;;;;30.48;35.42;98737.47;4984443;28;20029;-83
2022/08/03 04:27:36;;;;;;;8.68;1.58;;;;;;;30.06;35.30;98743.28;5002062;28;20101;-83
2022/08/03 04:30:02;;;;;;;3.23;1.57;;;;;;;31.09;33.57;98746.66;4978446;28;20027;-82
2022/08/03 04:32:28;;;;;;;13.07;1.60;;;;;;;32.63;30.46;98746.22;4961988;28;20412;-81
2022/08/03 04:34:53;;;;;;;6.68;1.67;;;;;;;33.77;28.44;98755.59;4978940;28;20085;-82
2022/08/03 04:37:37;;;;;;;5.78;1.52;;;;;;;33.00;29.74;98748.03;4962484;28;20503;-81
2022/08/03 04:40:05;;;;;;;21.35;1.98;;;;;;;32.77;30.67;98749.28;4995242;28;20030;-85
2022/08/03 04:42:30;;;;;;;15.20;1.70;;;;;;;32.98;30.34;98749.38;4978350;28;20030;-82
2022/08/03 04:44:56;;;;;;;12.98;2.17;;;;;;;32.45;31.12;98752.00;4977961;28;20038;-81
2022/08/03 04:47:21;;;;;;;19.63;2.40;;;;;;;32.38;31.02;98759.56;4977504;28;20089;-81
2022/08/03 04:49:47;;;;;;;13.32;2.30;;;;;;;33.79;28.71;98761.53;4962247;28;20544;-87
2022/08/03 04:52:12;;;;;;;9.90;2.85;;;;;;;33.84;28.72;98761.56;4978580;28;20041;-78
2022/08/03 04:54:39;;;;;;;14.18;2.60;;;;;;;34.22;28.47;98756.69;4978381;28;20486;-79
2022/08/03 04:57:05;;;;;;;7.75;2.60;;;;;;;34.87;26.85;98756.06;4978005;28;20486;-78
2022/08/03 04:59:30;;;;;;;8.02;2.60;;;;;;;35.71;25.36;98757.28;4978091;28;20034;-78
2022/08/03 05:01:56;;;;;;;5.95;2.40;;;;;;;34.76;26.78;98754.47;4977855;28;20034;-78
2022/08/03 05:04:21;;;;;;;7.57;2.85;;;;;;;35.41;25.79;98753.66;4994252;28;20065;-79
2022/08/03 05:06:47;;;;;;;3.60;2.42;;;;;;;36.22;24.40;98757.72;4993333;28;20498;-78
2022/08/03 05:09:12;;;;;;;4.70;2.30;;;;;;;35.36;25.03;98761.84;4978406;28;20158;-81
2022/08/03 05:11:38;;;;;;;4.53;2.30;;;;;;;34.83;25.49;98762.34;4961901;28;20405;-79
2022/08/03 05:14:03;;;;;;;3.28;1.83;;;;;;;34.43;26.14;98762.91;4977921;28;20509;-79
2022/08/03 05:16:29;;;;;;;5.25;2.30;;;;;;;34.03;26.81;98763.72;4961672;28;20030;-80
2022/08/03 05:18:55;;;;;;;11.95;2.30;;;;;;;33.77;26.94;98763.72;4995591;28;20093;-81
2022/08/03 05:21:21;;;;;;;5.03;2.08;;;;;;;34.91;25.16;98765.25;4994207;28;20041;-78
2022/08/03 05:23:46;;;;;;;5.53;1.90;;;;;;;36.56;23.06;98761.50;4995162;28;20030;-79
2022/08/03 05:26:12;;;;;;;9.73;2.13;;;;;;;36.23;23.08;98758.56;4961662;28;20512;-81
2022/08/03 05:28:38;;;;;;;3.17;1.77;;;;;;;36.37;22.72;98764.13;4993684;28;20070;-80
2022/08/03 05:31:03;;;;;;;4.53;1.90;;;;;;;35.65;23.78;98759.25;4995046;28;20027;-80
2022/08/03 05:33:29;;;;;;;8.38;1.83;;;;;;;37.13;21.83;98758.97;4977910;28;20027;-79
2022/08/03 05:35:54;;;;;;;3.55;1.30;;;;;;;38.90;19.35;98771.16;4977525;28;20068;-79
2022/08/03 05:38:20;;;;;;;4.68;1.45;;;;;;;40.11;17.90;98780.00;4977449;28;20046;-79
2022/08/03 05:40:45;;;;;;;6.88;1.30;;;;;;;41.08;16.99;98782.06;4994829;28;20033;-81
2022/08/03 05:43:11;;;;;;;4.45;1.50;;;;;;;41.82;16.09;98782.34;4961518;28;20493;-79
2022/08/03 05:45:37;;;;;;;2.65;1.13;;;;;;;42.64;15.18;98777.66;4977689;28;20057;-80
2022/08/03 05:48:04;;;;;;;6.97;1.20;;;;;;;43.34;14.48;98780.03;4993294;28;20042;-79
2022/08/03 05:50:29;;;;;;;8.25;1.50;;;;;;;43.82;14.37;98771.59;4993660;28;20030;-82
2022/08/03 05:52:56;;;;;;;4.00;1.20;;;;;;;44.35;13.49;98780.16;4977080;28;20038;-68
2022/08/03 05:55:22;;;;;;;4.38;1.10;;;;;;;44.26;13.79;98780.25;4976437;28;20457;-68
2022/08/03 05:57:47;;;;;;;9.30;1.50;;;;;;;44.43;13.75;98779.25;4974872;28;20041;-66
2022/08/03 06:00:13;;;;;;;2.00;1.03;;;;;;;44.87;13.27;98786.97;4994257;28;20034;-67
2022/08/03 06:02:39;;;;;;;5.73;1.30;;;;;;;43.08;14.76;98787.63;4961032;28;20042;-68
2022/08/03 06:05:05;;;;;;;6.97;1.13;;;;;;;41.79;15.82;98781.06;4964152;28;20034;-68
2022/08/03 06:07:30;;;;;;;18.02;1.48;;;;;;;41.17;16.66;98788.38;4962471;28;20057;-73
2022/08/03 06:09:56;;;;;;;2.85;1.10;;;;;;;40.41;17.10;98781.16;4962334;28;20026;-68
2022/08/03 06:12:21;;;;;;;4.95;1.38;;;;;;;39.62;17.63;98783.31;5012038;28;20026;-71
2022/08/03 06:14:47;;;;;;;2.65;1.13;;;;;;;40.01;17.39;98778.34;5027358;28;20404;-69
2022/08/03 06:17:13;;;;;;;4.72;1.25;;;;;;;39.29;18.18;98782.66;4981324;28;20046;-70
2022/08/03 06:19:38;;;;;;;7.25;1.20;;;;;;;38.79;18.83;98782.56;5015096;28;20032;-68
2022/08/03 06:22:04;;;;;;;5.93;1.25;;;;;;;38.24;19.71;98797.72;4999562;28;20440;-68
2022/08/03 06:24:29;;;;;;;2.33;1.20;;;;;;;38.09;19.92;98789.75;4995030;28;20037;-70
2022/08/03 06:26:55;;;;;;;7.00;1.17;;;;;;;38.07;20.19;98792.78;5012633;28;20030;-73
2022/08/03 06:29:20;;;;;;;5.70;1.23;;;;;;;38.03;19.82;98788.22;4994458;28;20040;-68
2022/08/03 06:31:46;;;;;;;3.75;1.30;;;;;;;39.83;18.10;98791.03;4995064;28;20034;-68
2022/08/03 06:34:11;;;;;;;6.15;1.20;;;;;;;40.93;16.96;98796.19;4995013;28;20033;-67
2022/08/03 06:36:37;;;;;;;2.22;1.13;;;;;;;41.80;16.50;98792.81;5012526;28;20029;-68
2022/08/03 06:39:03;;;;;;;3.50;1.13;;;;;;;41.72;15.95;98791.69;4994145;28;20058;-69
2022/08/03 06:41:28;;;;;;;7.90;1.40;;;;;;;41.24;16.33;98785.16;4978250;28;20041;-67
2022/08/03 06:43:54;;;;;;;2.03;1.20;;;;;;;40.95;16.56;98786.56;4978478;28;20089;-69
2022/08/03 06:46:19;;;;;;;1.60;1.00;;;;;;;41.21;16.40;98786.63;5012117;28;20041;-67
2022/08/03 06:48:45;;;;;;;2.65;1.10;;;;;;;40.71;17.02;98786.94;4978216;28;20066;-70
2022/08/03 06:51:10;;;;;;;2.72;1.10;;;;;;;40.24;17.85;98791.97;4995179;28;20448;-68
2022/08/03 06:53:36;;;;;;;2.47;1.30;;;;;;;39.90;18.07;98794.16;4978539;28;20033;-69
2022/08/03 06:56:04;;;;;;;4.20;1.42;;;;;;;39.53;18.99;98789.81;4978153;28;20168;-68
2022/08/03 06:58:29;;;;;;;3.75;1.30;;;;;;;39.36;19.00;98796.72;4962025;28;20032;-69
2022/08/03 07:00:55;;;;;;;3.45;1.40;;;;;;;39.00;19.13;98799.31;4994822;28;20037;-68
2022/08/03 07:03:20;;;;;;;5.47;1.30;;;;;;;38.61;19.77;98795.97;4991134;28;20077;-68
2022/08/03 07:05:46;;;;;;;4.88;1.50;;;;;;;38.27;19.86;98788.94;4992138;28;20026;-70
2022/08/03 07:08:12;;;;;;;3.42;1.30;;;;;;;37.98;20.22;98789.91;4991018;28;20485;-68
2022/08/03 07:10:41;;;;;;;11.68;1.70;;;;;;;37.66;20.73;98788.75;4974307;28;20042;-69
2022/08/03 07:13:07;;;;;;;3.53;1.48;;;;;;;37.42;21.01;98790.75;4990674;28;20411;-69
2022/08/03 07:15:33;;;;;;;2.85;1.58;;;;;;;37.19;21.30;98789.66;4992696;28;20425;-70
2022/08/03 07:17:59;;;;;;;3.70;1.40;;;;;;;37.05;21.64;98794.97;4959060;28;20068;-70
2022/08/03 07:20:24;;;;;;;3.95;1.60;;;;;;;37.01;21.90;98799.41;4975272;28;20069;-68
2022/08/03 07:22:50;;;;;;;6.30;1.80;;;;;;;36.84;21.54;98792.50;4974393;28;20074;-70
2022/08/03 07:25:15;;;;;;;5.65;1.65;;;;;;;36.69;22.10;98793.44;4975017;28;20072;-69
2022/08/03 07:27:44;;;;;;;6.20;1.70;;;;;;;36.64;21.82;98792.69;4991781;28;20114;-69
2022/08/03 07:30:10;;;;;;;5.70;1.70;;;;;;;37.08;22.03;98795.19;4958911;28;20065;-69
2022/08/03 07:32:36;;;;;;;3.05;1.40;;;;;;;37.61;21.05;98791.53;4990976;28;20061;-71
2022/08/03 07:35:02;;;;;;;4.70;1.58;;;;;;;37.23;21.67;98798.88;4975125;28;20050;-68
2022/08/03 07:37:28;;;;;;;5.97;1.50;;;;;;;37.21;21.92;98798.31;4974578;28;20469;-70
2022/08/03 07:39:54;;;;;;;7.50;1.80;;;;;;;37.41;21.01;98797.28;4990955;28;20478;-68
2022/08/03 07:42:19;;;;;;;3.13;1.50;;;;;;;37.25;20.99;98799.41;4991739;28;20490;-70
2022/08/03 07:44:45;;;;;;;2.58;1.55;;;;;;;37.40;21.11;98803.81;4990892;28;20054;-68
2022/08/03 07:47:10;;;;;;;9.95;1.55;;;;;;;37.72;21.34;98802.31;4974636;28;20077;-69
2022/08/03 07:49:41;;;;;;;5.68;1.70;;;;;;;38.59;20.23;98794.63;4990591;28;20030;-69
2022/08/03 07:54:51;;;;;;;4.55;1.45;;;;;;;40.03;18.71;98792.50;4990665;28;20029;-68
2022/08/03 07:57:17;;;;;;;3.40;1.42;;;;;;;40.59;18.54;98803.13;4991946;28;20393;-69
2022/08/03 07:59:45;;;;;;;3.85;1.52;;;;;;;41.10;17.67;98798.19;4974177;28;20037;-69
2022/08/03 08:02:11;;;;;;;3.47;1.52;;;;;;;41.51;17.54;98796.97;4974746;28;20050;-68
2022/08/03 08:04:37;;;;;;;4.30;1.30;;;;;;;41.91;16.87;98792.19;4989993;28;20193;-68
2022/08/03 08:07:03;;;;;;;2.38;1.23;;;;;;;42.27;16.61;98799.25;4974318;28;20022;-70
2022/08/03 08:09:29;;;;;;;2.17;1.20;;;;;;;42.56;16.18;98797.72;4973978;28;20038;-68
2022/08/03 08:11:55;;;;;;;8.20;1.20;;;;;;;42.80;16.25;98788.09;4974573;28;20026;-68
2022/08/03 08:14:21;;;;;;;6.53;1.27;;;;;;;43.01;15.30;98788.16;4989234;28;20042;-68
2022/08/03 08:16:48;;;;;;;6.43;1.20;;;;;;;43.20;15.17;98788.53;4991228;28;20037;-70
2022/08/03 08:19:15;;;;;;;2.13;1.23;;;;;;;43.38;15.07;98793.94;4989430;28;20039;-69
2022/08/03 08:21:42;;;;;;;3.47;1.13;;;;;;;43.52;14.57;98786.25;4975341;28;20500;-72
2022/08/03 08:24:08;;;;;;;;;;;;;;;43.65;14.43;98795.34;4977454;28;20101;-72
2022/08/03 08:26:34;;;;;;;4.60;1.20;;;;;;;43.75;14.36;98782.34;4977290;28;20348;-69
2022/08/03 08:29:00;;;;;;;4.97;1.10;;;;;;;43.79;14.31;98773.09;4993941;28;20034;-70
2022/08/03 08:31:26;;;;;;;3.43;1.20;;;;;;;43.79;14.12;98778.59;4993136;28;20088;-73
2022/08/03 08:33:52;;;;;;;2.27;1.17;;;;;;;43.63;14.25;98775.63;4977589;28;20037;-68
2022/08/03 08:36:18;;;;;;;6.40;1.30;;;;;;;43.22;14.09;98771.72;4993940;28;20030;-71
2022/08/03 08:38:44;;;;;;;2.73;1.27;;;;;;;42.98;14.83;98770.41;4993452;28;20030;-68
2022/08/03 08:41:13;;;;;;;4.80;1.30;;;;;;;42.65;14.69;98775.72;4977052;28;20116;-71
2022/08/03 08:43:40;;;;;;;4.07;1.10;;;;;;;42.78;14.98;98774.69;4976354;28;20516;-70
2022/08/03 08:46:08;;;;;;;1.90;0.88;;;;;;;42.88;14.43;98770.78;4960838;28;20034;-69
2022/08/03 08:48:35;;;;;;;3.20;1.40;;;;;;;42.37;14.72;98775.31;4961904;28;20065;-69
2022/08/03 08:51:01;;;;;;;1.73;1.00;;;;;;;42.01;15.37;98765.56;4960881;28;20030;-72
2022/08/03 08:53:27;;;;;;;5.37;1.20;;;;;;;41.79;15.76;98770.09;4977356;28;20042;-72
2022/08/03 08:55:54;;;;;;;3.17;1.10;;;;;;;41.44;15.96;98766.53;4993549;28;20039;-69
2022/08/03 08:58:21;;;;;;;5.07;1.40;;;;;;;41.03;16.51;98769.34;4961246;28;20437;-69
2022/08/03 09:00:47;;;;;;;;;;;;;;;41.14;16.46;98769.06;4977554;28;20061;-69
2022/08/03 09:03:13;;;;;;;5.82;1.23;;;;;;;40.87;16.59;98766.25;4977003;28;19917;-69
2022/08/03 09:05:41;;;;;;;4.50;1.17;;;;;;;40.64;16.97;98760.03;4994658;28;20433;-69
2022/08/03 09:08:06;;;;;;;4.60;1.20;;;;;;;40.15;17.51;98759.09;4961488;28;20477;-70
2022/08/03 09:10:33;;;;;;;3.03;1.33;;;;;;;40.05;17.71;98760.19;4977088;28;20030;-71
2022/08/03 09:12:59;;;;;;;13.23;1.42;;;;;;;40.19;17.59;98753.84;4993024;28;20129;-71
2022/08/03 09:15:25;;;;;;;10.40;1.40;;;;;;;40.04;18.08;98755.03;4994723;28;20458;-73
2022/08/03 09:17:55;;;;;;;9.02;1.45;;;;;;;39.78;18.37;98755.63;4976338;28;20039;-70
2022/08/03 09:20:21;;;;;;;7.03;1.27;;;;;;;40.05;18.17;98743.78;4976968;28;20129;-71
2022/08/03 09:22:53;;;;;;;17.53;1.80;;;;;;;39.56;18.76;98743.56;4976665;28;20073;-70
2022/08/03 09:25:19;;;;;;;5.80;1.50;;;;;;;39.28;18.83;98742.81;4994543;28;20337;-70
2022/08/03 09:27:45;;;;;;;2.30;1.40;;;;;;;39.17;18.47;98744.16;4976659;28;20038;-73
2022/08/03 09:30:17;;;;;;;4.55;1.58;;;;;;;39.10;18.56;98744.59;4993226;28;20034;-73
2022/08/03 09:32:44;;;;;;;6.80;1.70;;;;;;;39.15;18.26;98741.75;4992492;28;20034;-85
2022/08/03 09:35:10;;;;;;;6.43;1.50;;;;;;;38.55;18.82;98742.63;4962521;28;20042;-86
2022/08/03 09:37:36;;;;;;;5.60;1.40;;;;;;;38.32;19.10;98739.00;4978071;28;20029;-83
2022/08/03 09:40:02;;;;;;;4.10;1.40;;;;;;;38.06;19.14;98741.31;4992546;28;20034;-85
2022/08/03 09:42:29;;;;;;;3.93;1.40;;;;;;;38.09;19.35;98748.88;4993426;28;20077;-83
2022/08/03 09:44:56;;;;;;;2.47;1.50;;;;;;;38.03;19.64;98736.47;4995276;28;20497;-81
2022/08/03 09:47:28;;;;;;;;;;;;;;;38.21;19.20;98737.53;4981212;28;20034;-82
2022/08/03 09:50:05;;;;;;;2.92;1.25;;;;;;;38.43;19.12;98731.41;4978700;28;19914;-77
2022/08/03 09:52:35;;;;;;;3.53;1.33;;;;;;;38.64;19.26;98735.38;4977132;28;20042;-77
2022/08/03 09:55:02;;;;;;;3.58;1.38;;;;;;;38.91;19.03;98728.31;4992800;28;20142;-77
2022/08/03 09:57:29;;;;;;;2.00;1.25;;;;;;;38.84;18.77;98728.72;4993516;28;20129;-85
2022/08/03 10:00:12;;;;;;;3.28;1.15;;;;;;;38.66;18.88;98722.25;4977574;28;20038;-85
2022/08/03 10:02:38;;;;;;;2.97;1.20;;;;;;;38.49;18.79;98724.75;4992961;28;20044;-84
2022/08/03 10:05:04;;;;;;;2.25;1.10;;;;;;;38.33;19.09;98722.31;4964630;28;20113;-83
2022/08/03 10:07:39;;;;;;;2.65;1.35;;;;;;;38.03;19.25;98715.47;4963430;28;20111;-79
2022/08/03 10:10:06;;;;;;;1.85;1.10;;;;;;;37.76;19.27;98719.72;4994958;28;20129;-83
2022/08/03 10:12:31;;;;;;;1.77;1.00;;;;;;;37.45;20.04;98722.91;4980203;28;20540;-84
2022/08/03 10:14:57;;;;;;;2.88;1.15;;;;;;;37.29;20.00;98722.31;4963635;28;20046;-83
2022/08/03 10:17:22;;;;;;;2.05;1.20;;;;;;;37.12;20.15;98708.38;4979979;28;20131;-84
2022/08/03 10:19:48;;;;;;;3.58;1.30;;;;;;;36.98;20.27;98712.94;4996275;28;20398;-85
2022/08/03 10:22:21;;;;;;;3.30;1.20;;;;;;;36.84;20.51;98715.53;4979746;28;20025;-84
2022/08/03 10:25:13;;;;;;;2.92;1.25;;;;;;;36.67;20.94;98718.69;4963418;28;20046;-76
2022/08/03 10:27:40;;;;;;;2.70;1.20;;;;;;;36.52;20.97;98716.97;4991626;28;20038;-82
2022/08/03 10:30:10;;;;;;;3.60;1.10;;;;;;;36.35;21.03;98714.69;4996866;28;20022;-82
2022/08/03 10:32:53;;;;;;;4.22;1.23;;;;;;;36.19;21.66;98719.44;4963861;28;20040;-86
2022/08/03 10:35:19;;;;;;;1.58;1.10;;;;;;;36.05;21.83;98703.81;4963486;28;20136;-85
2022/08/03 10:37:55;;;;;;;6.78;1.17;;;;;;;35.97;21.95;98703.63;4979361;28;20482;-83
2022/08/03 10:40:21;;;;;;;2.83;1.20;;;;;;;36.05;21.98;98700.28;4979282;28;20576;-84
2022/08/03 10:42:48;;;;;;;4.57;1.35;;;;;;;36.20;21.85;98708.28;4978027;28;20113;-84
2022/08/03 10:45:18;;;;;;;2.08;1.13;;;;;;;36.26;21.51;98703.63;4963071;28;20030;-84
2022/08/03 10:47:45;;;;;;;4.90;1.10;;;;;;;36.33;21.81;98698.69;4963066;28;20493;-85
2022/08/03 10:50:11;;;;;;;2.60;1.27;;;;;;;36.47;21.86;98698.81;4964134;28;20120;-84
2022/08/03 10:52:53;;;;;;;2.85;1.10;;;;;;;36.47;21.67;98693.38;4963218;28;20510;-84
2022/08/03 10:58:50;;;;;;;5.07;1.20;;;;;;;36.51;21.36;98682.72;4998433;28;20037;-84
2022/08/03 11:01:17;;;;;;;2.90;1.17;;;;;;;36.53;22.32;98692.22;4975561;28;20034;-77
2022/08/03 11:03:52;;;;;;;2.20;1.30;;;;;;;36.34;21.52;98694.03;4961169;28;20046;-78
2022/08/03 11:06:23;;;;;;;1.48;1.00;;;;;;;35.95;21.08;98692.25;5004804;28;20025;-75
2022/08/03 11:09:15;;;;;;;6.72;1.15;;;;;;;35.22;22.29;98685.66;4994284;28;20030;-72
2022/08/03 11:11:42;;;;;;;2.92;1.20;;;;;;;35.18;21.92;98684.59;4977757;28;20056;-75
2022/08/03 11:14:12;;;;;;;2.47;1.20;;;;;;;35.17;21.19;98672.94;4977607;28;20416;-77
2022/08/03 11:16:48;;;;;;;3.38;1.33;;;;;;;35.07;21.35;98673.00;4981554;28;20060;-76
2022/08/03 11:19:21;;;;;;;3.53;1.35;;;;;;;34.90;21.40;98682.31;4998531;28;20033;-78
2022/08/03 11:21:49;;;;;;;2.45;0.98;;;;;;;34.59;21.97;98673.47;4997894;28;20030;-76
2022/08/03 11:25:00;;;;;;;2.85;1.00;;;;;;;34.66;22.90;98673.97;5014052;28;20034;-76
2022/08/03 11:27:28;;;;;;;4.15;1.00;;;;;;;34.58;22.56;98671.81;4951510;29;20530;-75
2022/08/03 11:30:14;;;;;;;2.45;1.10;;;;;;;34.85;22.84;98673.38;4917712;29;20040;-77
2022/08/03 11:32:40;;;;;;;2.97;1.30;;;;;;;34.69;21.83;98668.00;4935187;29;20507;-76
2022/08/03 11:35:19;;;;;;;2.75;1.00;;;;;;;34.44;21.90;98652.63;4935080;29;20035;-74
2022/08/03 11:37:56;;;;;;;5.82;1.27;;;;;;;34.35;22.45;98660.53;4935555;29;20046;-76
2022/08/03 11:40:52;;;;;;;3.72;1.45;;;;;;;34.31;22.96;98658.66;4951330;29;20498;-78
2022/08/03 11:43:20;;;;;;;1.27;1.00;;;;;;;34.32;22.41;98674.63;4935424;29;20051;-76
2022/08/03 11:46:02;;;;;;;2.58;1.23;;;;;;;34.23;23.76;98660.81;4935169;29;20281;-75
2022/08/03 11:48:33;;;;;;;1.92;1.10;;;;;;;34.20;23.53;98658.63;4918275;29;20067;-77
2022/08/03 11:51:04;;;;;;;6.97;1.23;;;;;;;34.20;23.40;98661.34;4918811;29;20071;-73